Time;durP1;ratioP1;P1;durP2;ratioP2;P2;SDS_P1;SDS_P2;PMS_P1;PMS_P2;Temp;Humidity;BMP_temperature;BMP_pressure;BME280_temperature;BME280_humidity;BME280_pressure;Samples;Min_cycle;Max_cycle;Signal;HPM_P1;HPM_P2
2022/10/15 00:01:14;;;;;;;7.93;7.53;;;;;;;;;;5019332;28;20444;-70
2022/10/15 00:03:42;;;;;;;7.90;7.50;;;;;;;;;;5018206;28;20038;-70
2022/10/15 00:06:11;;;;;;;7.80;7.40;;;;;;;;;;5014065;28;20041;-70
2022/10/15 00:08:37;;;;;;;7.72;7.32;;;;;;;;;;5018479;28;20034;-70
2022/10/15 00:11:08;;;;;;;7.93;7.53;;;;;;;;;;5016182;28;20128;-70
2022/10/15 00:13:34;;;;;;;8.18;7.78;;;;;;;;;;5018398;28;20044;-70
2022/10/15 00:16:00;;;;;;;7.97;7.57;;;;;;;;;;5017182;28;20420;-70
2022/10/15 00:18:26;;;;;;;7.90;7.50;;;;;;;;;;5018143;28;20046;-70
2022/10/15 00:20:52;;;;;;;7.80;7.40;;;;;;;;;;5018682;28;20041;-69
2022/10/15 00:23:18;;;;;;;7.80;7.40;;;;;;;;;;5019725;28;20033;-70
2022/10/15 00:25:43;;;;;;;7.97;7.57;;;;;;;;;;5020944;28;20391;-70
2022/10/15 00:28:09;;;;;;;7.97;7.57;;;;;;;;;;5017421;28;20056;-69
2022/10/15 00:30:35;;;;;;;7.78;7.38;;;;;;;;;;5009035;28;20045;-69
2022/10/15 00:33:00;;;;;;;7.80;7.40;;;;;;;;;;5022828;28;20525;-69
2022/10/15 00:35:26;;;;;;;8.18;7.78;;;;;;;;;;5025039;28;20047;-70
2022/10/15 00:37:52;;;;;;;7.85;7.45;;;;;;;;;;5017808;28;20033;-69
2022/10/15 00:40:18;;;;;;;7.90;7.50;;;;;;;;;;5020012;28;20489;-70
2022/10/15 00:42:44;;;;;;;8.13;7.72;;;;;;;;;;5021461;28;20029;-69
2022/10/15 00:45:12;;;;;;;7.80;7.40;;;;;;;;;;5020575;28;20424;-70
2022/10/15 00:47:41;;;;;;;7.80;7.40;;;;;;;;;;5021379;28;20892;-69
2022/10/15 00:50:22;;;;;;;7.70;7.30;;;;;;;;;;5018983;28;20490;-69
2022/10/15 00:53:08;;;;;;;7.78;7.38;;;;;;;;;;5022111;28;20084;-70
2022/10/15 00:55:41;;;;;;;7.78;7.38;;;;;;;;;;5016734;28;20120;-70
2022/10/15 00:58:16;;;;;;;7.80;7.40;;;;;;;;;;5021069;28;20033;-70
2022/10/15 01:00:42;;;;;;;7.53;7.13;;;;;;;;;;5019265;28;20123;-70
2022/10/15 01:03:08;;;;;;;7.95;7.55;;;;;;;;;;5019912;28;20061;-70
2022/10/15 01:05:37;;;;;;;7.90;7.50;;;;;;;;;;5021596;28;20651;-70
2022/10/15 01:08:03;;;;;;;8.00;7.60;;;;;;;;;;5020688;28;20493;-70
2022/10/15 01:10:40;;;;;;;7.68;7.28;;;;;;;;;;5022250;28;20037;-70
2022/10/15 01:13:27;;;;;;;7.80;7.40;;;;;;;;;;5022443;28;20112;-70
2022/10/15 01:16:01;;;;;;;7.80;7.40;;;;;;;;;;5020022;28;20053;-70
2022/10/15 01:18:40;;;;;;;7.53;7.13;;;;;;;;;;5024545;28;20045;-70
2022/10/15 01:21:15;;;;;;;7.75;7.35;;;;;;;;;;5016701;28;20464;-70
2022/10/15 01:24:29;;;;;;;7.80;7.40;;;;;;;;;;5019635;28;20084;-70
2022/10/15 01:27:23;;;;;;;7.78;7.38;;;;;;;;;;5024348;28;20045;-70
2022/10/15 01:29:55;;;;;;;7.75;7.35;;;;;;;;;;5019064;28;20033;-70
2022/10/15 01:32:33;;;;;;;7.55;7.15;;;;;;;;;;5020894;28;20049;-70
2022/10/15 01:35:21;;;;;;;7.63;7.22;;;;;;;;;;5025364;28;20477;-70
2022/10/15 01:37:53;;;;;;;7.82;7.43;;;;;;;;;;5017497;28;20046;-70
2022/10/15 01:40:41;;;;;;;7.90;7.50;;;;;;;;;;5020618;28;20044;-70
2022/10/15 01:43:12;;;;;;;7.72;7.32;;;;;;;;;;5013339;28;20283;-70
2022/10/15 01:45:52;;;;;;;7.50;7.10;;;;;;;;;;5017505;28;20375;-69
2022/10/15 01:48:40;;;;;;;7.55;7.15;;;;;;;;;;5011985;28;20124;-70
2022/10/15 01:51:08;;;;;;;7.40;7.00;;;;;;;;;;5022281;28;20040;-70
2022/10/15 01:53:35;;;;;;;7.88;7.47;;;;;;;;;;5016102;28;20378;-70
2022/10/15 01:56:16;;;;;;;7.35;6.95;;;;;;;;;;5018665;28;20038;-70
2022/10/15 01:58:44;;;;;;;7.43;7.03;;;;;;;;;;5024742;28;20038;-70
2022/10/15 02:01:10;;;;;;;7.43;7.03;;;;;;;;;;5016116;28;20048;-71
2022/10/15 02:03:46;;;;;;;7.10;6.80;;;;;;;;;;5018573;28;20037;-70
2022/10/15 02:06:18;;;;;;;7.43;7.03;;;;;;;;;;5041377;28;20108;-70
2022/10/15 02:09:04;;;;;;;7.50;7.10;;;;;;;;;;5019428;28;20057;-70
2022/10/15 02:11:39;;;;;;;7.15;6.85;;;;;;;;;;5020483;28;20057;-70
2022/10/15 02:14:14;;;;;;;7.30;6.90;;;;;;;;;;5022442;28;20116;-70
2022/10/15 02:17:10;;;;;;;7.38;6.97;;;;;;;;;;5019413;28;20042;-71
2022/10/15 02:19:48;;;;;;;7.30;6.90;;;;;;;;;;5022889;28;20064;-70
2022/10/15 02:22:19;;;;;;;7.50;7.10;;;;;;;;;;5018061;28;20083;-70
2022/10/15 02:24:57;;;;;;;7.60;7.20;;;;;;;;;;5014890;28;20040;-70
2022/10/15 02:27:25;;;;;;;7.50;7.10;;;;;;;;;;5019679;28;20040;-71
2022/10/15 02:29:53;;;;;;;7.80;7.40;;;;;;;;;;5020706;28;20056;-71
2022/10/15 02:32:23;;;;;;;7.88;7.47;;;;;;;;;;5020069;28;20510;-71
2022/10/15 02:34:51;;;;;;;7.60;7.20;;;;;;;;;;5020406;28;20072;-71
2022/10/15 02:37:21;;;;;;;7.68;7.28;;;;;;;;;;5015430;28;20114;-70
2022/10/15 02:39:47;;;;;;;7.60;7.20;;;;;;;;;;5015131;28;20562;-69
2022/10/15 02:42:16;;;;;;;7.65;7.25;;;;;;;;;;5024644;28;20124;-69
2022/10/15 02:44:41;;;;;;;7.87;7.47;;;;;;;;;;5024466;28;20631;-69
2022/10/15 02:47:07;;;;;;;7.50;7.10;;;;;;;;;;5017977;28;20124;-70
2022/10/15 02:49:33;;;;;;;7.63;7.22;;;;;;;;;;5023112;28;20034;-70
2022/10/15 02:51:59;;;;;;;7.82;7.43;;;;;;;;;;5013647;28;20645;-69
2022/10/15 02:54:24;;;;;;;7.85;7.45;;;;;;;;;;5022227;28;20120;-70
2022/10/15 02:56:50;;;;;;;7.40;7.00;;;;;;;;;;5015608;28;20037;-70
2022/10/15 02:59:18;;;;;;;7.43;7.03;;;;;;;;;;5022178;28;20033;-70
2022/10/15 03:01:44;;;;;;;7.50;7.10;;;;;;;;;;5012669;28;20371;-70
2022/10/15 03:04:12;;;;;;;7.07;6.77;;;;;;;;;;5010782;28;20428;-70
2022/10/15 03:06:38;;;;;;;7.40;7.00;;;;;;;;;;5021898;28;20072;-70
2022/10/15 03:09:04;;;;;;;7.50;7.10;;;;;;;;;;5015939;28;20029;-70
2022/10/15 03:11:31;;;;;;;7.70;7.30;;;;;;;;;;5018121;28;20071;-71
2022/10/15 03:13:56;;;;;;;7.15;6.85;;;;;;;;;;5020215;28;20076;-71
2022/10/15 03:16:22;;;;;;;7.45;7.05;;;;;;;;;;5021971;28;20041;-71
2022/10/15 03:18:48;;;;;;;7.15;6.85;;;;;;;;;;5019840;28;20041;-70
2022/10/15 03:21:16;;;;;;;7.47;7.07;;;;;;;;;;5021398;28;20068;-70
2022/10/15 03:23:43;;;;;;;7.32;6.93;;;;;;;;;;5023590;28;20103;-70
2022/10/15 03:26:15;;;;;;;7.25;6.85;;;;;;;;;;5019146;28;20041;-70
2022/10/15 03:28:41;;;;;;;7.05;6.75;;;;;;;;;;5020946;28;20493;-70
2022/10/15 03:31:06;;;;;;;7.60;7.20;;;;;;;;;;5016311;28;20467;-70
2022/10/15 03:33:32;;;;;;;7.40;7.00;;;;;;;;;;5016649;28;20556;-70
2022/10/15 03:35:59;;;;;;;7.55;7.15;;;;;;;;;;5019194;28;20073;-70
2022/10/15 03:38:25;;;;;;;7.60;7.20;;;;;;;;;;5020148;28;20054;-70
2022/10/15 03:40:52;;;;;;;7.45;7.05;;;;;;;;;;5021436;28;20064;-70
2022/10/15 03:43:30;;;;;;;7.60;7.20;;;;;;;;;;5017882;28;20402;-70
2022/10/15 03:46:03;;;;;;;7.70;7.30;;;;;;;;;;5020591;28;20037;-70
2022/10/15 03:48:30;;;;;;;7.50;7.10;;;;;;;;;;5019059;28;20065;-70
2022/10/15 03:50:56;;;;;;;7.55;7.15;;;;;;;;;;5015678;28;20040;-71
2022/10/15 03:53:22;;;;;;;7.50;7.10;;;;;;;;;;5016197;28;20037;-71
2022/10/15 03:55:49;;;;;;;7.88;7.47;;;;;;;;;;5019601;28;20064;-70
2022/10/15 03:58:15;;;;;;;7.47;7.07;;;;;;;;;;5025242;28;20030;-70
2022/10/15 04:00:48;;;;;;;7.35;6.95;;;;;;;;;;5019589;28;20120;-70
2022/10/15 04:03:14;;;;;;;7.65;7.25;;;;;;;;;;5012208;28;20268;-70
2022/10/15 04:05:39;;;;;;;7.50;7.10;;;;;;;;;;5020501;28;20421;-70
2022/10/15 04:08:08;;;;;;;7.10;6.80;;;;;;;;;;5026290;28;20056;-71
2022/10/15 04:10:37;;;;;;;7.70;7.30;;;;;;;;;;5024667;28;20102;-70
2022/10/15 04:13:03;;;;;;;8.32;7.93;;;;;;;;;;5019731;28;20042;-71
2022/10/15 04:15:31;;;;;;;7.88;7.47;;;;;;;;;;5018205;28;20138;-71
2022/10/15 04:18:02;;;;;;;7.97;7.57;;;;;;;;;;5018452;28;20033;-71
2022/10/15 04:20:28;;;;;;;8.35;7.95;;;;;;;;;;5025471;28;20042;-71
2022/10/15 04:23:06;;;;;;;8.30;7.90;;;;;;;;;;5017385;28;20055;-71
2022/10/15 04:25:31;;;;;;;8.10;7.70;;;;;;;;;;5021412;28;20037;-71
2022/10/15 04:27:57;;;;;;;7.78;7.38;;;;;;;;;;5005941;28;20033;-71
2022/10/15 04:30:22;;;;;;;8.00;7.60;;;;;;;;;;5023922;28;20041;-71
2022/10/15 04:32:54;;;;;;;7.40;7.00;;;;;;;;;;5016482;28;20120;-71
2022/10/15 04:35:20;;;;;;;7.80;7.40;;;;;;;;;;5018031;28;20116;-71
2022/10/15 04:38:06;;;;;;;8.00;7.60;;;;;;;;;;5014492;28;20404;-70
2022/10/15 04:41:06;;;;;;;7.80;7.40;;;;;;;;;;5025289;28;20048;-71
2022/10/15 04:43:45;;;;;;;8.02;7.63;;;;;;;;;;5024122;28;20045;-70
2022/10/15 04:46:11;;;;;;;8.15;7.75;;;;;;;;;;5015784;28;20441;-70
2022/10/15 04:48:38;;;;;;;8.00;7.60;;;;;;;;;;5020793;28;20033;-70
2022/10/15 04:51:08;;;;;;;;;;;;;;;;;;5019060;28;20051;-70
2022/10/15 04:53:47;;;;;;;7.90;7.50;;;;;;;;;;5023048;28;19920;-70
2022/10/15 04:56:16;;;;;;;8.30;7.90;;;;;;;;;;5018264;28;20041;-70
2022/10/15 04:58:44;;;;;;;8.50;8.10;;;;;;;;;;5023749;28;20477;-70
2022/10/15 05:01:13;;;;;;;7.80;7.40;;;;;;;;;;5019240;28;20037;-71
2022/10/15 05:03:51;;;;;;;8.30;7.90;;;;;;;;;;5019443;28;20040;-71
2022/10/15 05:06:19;;;;;;;8.05;7.65;;;;;;;;;;5017071;28;20029;-71
2022/10/15 05:08:46;;;;;;;7.80;7.40;;;;;;;;;;5017776;28;20507;-70
2022/10/15 05:11:25;;;;;;;7.80;7.40;;;;;;;;;;5019001;28;20088;-70
2022/10/15 05:13:53;;;;;;;7.90;7.50;;;;;;;;;;5020001;28;20033;-70
2022/10/15 05:16:21;;;;;;;8.40;8.00;;;;;;;;;;5025865;28;20103;-70
2022/10/15 05:18:49;;;;;;;8.10;7.70;;;;;;;;;;5019473;28;20040;-70
2022/10/15 05:21:17;;;;;;;7.93;7.53;;;;;;;;;;5017507;28;20037;-70
2022/10/15 05:23:46;;;;;;;8.02;7.63;;;;;;;;;;5020956;28;20512;-70
2022/10/15 05:26:31;;;;;;;8.00;7.60;;;;;;;;;;5026398;28;20032;-70
2022/10/15 05:28:58;;;;;;;7.90;7.50;;;;;;;;;;5022816;28;21402;-70
2022/10/15 05:31:29;;;;;;;8.10;7.70;;;;;;;;;;5023881;28;20112;-70
2022/10/15 05:34:07;;;;;;;7.78;7.38;;;;;;;;;;5020136;28;20486;-70
2022/10/15 05:36:37;;;;;;;8.07;7.68;;;;;;;;;;5019316;28;20077;-70
2022/10/15 05:39:05;;;;;;;8.02;7.63;;;;;;;;;;5018301;28;20046;-70
2022/10/15 05:41:38;;;;;;;8.30;7.90;;;;;;;;;;5021457;28;20041;-70
2022/10/15 05:44:03;;;;;;;8.20;7.80;;;;;;;;;;5018380;28;20042;-71
2022/10/15 05:46:29;;;;;;;8.40;8.00;;;;;;;;;;5011586;28;20042;-71
2022/10/15 05:48:56;;;;;;;8.10;7.70;;;;;;;;;;5017690;28;20022;-71
2022/10/15 05:51:24;;;;;;;8.30;7.90;;;;;;;;;;5019940;28;20053;-71
2022/10/15 05:53:54;;;;;;;8.07;7.68;;;;;;;;;;5019549;28;20291;-71
2022/10/15 05:56:20;;;;;;;8.20;7.80;;;;;;;;;;5020254;28;20034;-70
2022/10/15 05:58:46;;;;;;;8.20;7.80;;;;;;;;;;5021402;28;20033;-71
2022/10/15 06:01:12;;;;;;;8.20;7.80;;;;;;;;;;5019182;28;20033;-71
2022/10/15 06:03:42;;;;;;;8.77;8.38;;;;;;;;;;5024023;28;20040;-71
2022/10/15 06:06:22;;;;;;;8.13;7.72;;;;;;;;;;5019307;28;20049;-71
2022/10/15 06:08:49;;;;;;;7.85;7.45;;;;;;;;;;5017475;28;20488;-71
2022/10/15 06:11:15;;;;;;;7.90;7.50;;;;;;;;;;5024731;28;20060;-71
2022/10/15 06:13:42;;;;;;;8.10;7.70;;;;;;;;;;5021808;28;20482;-71
2022/10/15 06:16:09;;;;;;;8.20;7.80;;;;;;;;;;5023151;28;20030;-71
2022/10/15 06:18:37;;;;;;;7.68;7.28;;;;;;;;;;5021605;28;20224;-71
2022/10/15 06:21:04;;;;;;;7.70;7.30;;;;;;;;;;5020608;28;20069;-71
2022/10/15 06:23:30;;;;;;;7.82;7.43;;;;;;;;;;5017473;28;20080;-71
2022/10/15 06:26:01;;;;;;;8.20;7.80;;;;;;;;;;5015772;28;20108;-71
2022/10/15 06:28:26;;;;;;;8.15;7.75;;;;;;;;;;5017860;28;20041;-71
2022/10/15 06:30:52;;;;;;;8.10;7.70;;;;;;;;;;5022702;28;20029;-71
2022/10/15 06:33:17;;;;;;;8.30;7.90;;;;;;;;;;5019844;28;20047;-72
2022/10/15 06:35:43;;;;;;;8.48;8.07;;;;;;;;;;5020338;28;20324;-71
2022/10/15 06:38:09;;;;;;;8.55;8.15;;;;;;;;;;5015530;28;20062;-71
2022/10/15 06:40:36;;;;;;;8.40;8.00;;;;;;;;;;5020665;28;20045;-71
2022/10/15 06:43:06;;;;;;;8.10;7.70;;;;;;;;;;5022018;28;20025;-71
2022/10/15 06:45:37;;;;;;;8.40;8.00;;;;;;;;;;5017945;28;20041;-71
2022/10/15 06:48:06;;;;;;;9.00;8.50;;;;;;;;;;5019318;28;20536;-71
2022/10/15 06:50:34;;;;;;;8.75;8.35;;;;;;;;;;5023484;28;20034;-71
2022/10/15 06:53:00;;;;;;;8.40;8.00;;;;;;;;;;5019183;28;20112;-71
2022/10/15 06:55:27;;;;;;;8.43;8.02;;;;;;;;;;5018661;28;20062;-71
2022/10/15 06:57:54;;;;;;;8.38;7.97;;;;;;;;;;5023772;28;20042;-71
2022/10/15 07:00:22;;;;;;;8.63;8.23;;;;;;;;;;5022047;28;20346;-71
2022/10/15 07:02:48;;;;;;;8.60;8.20;;;;;;;;;;5020174;28;20045;-71
2022/10/15 07:05:14;;;;;;;8.52;8.13;;;;;;;;;;5018880;28;20040;-71
2022/10/15 07:07:39;;;;;;;8.55;8.15;;;;;;;;;;5023058;28;20025;-71
2022/10/15 07:10:06;;;;;;;8.30;7.90;;;;;;;;;;5015857;28;20085;-71
2022/10/15 07:12:32;;;;;;;8.20;7.80;;;;;;;;;;5022448;28;20082;-71
2022/10/15 07:14:58;;;;;;;8.10;7.70;;;;;;;;;;5014511;28;20480;-71
2022/10/15 07:17:23;;;;;;;8.30;7.90;;;;;;;;;;5016004;28;20051;-71
2022/10/15 07:19:49;;;;;;;8.10;7.70;;;;;;;;;;5016788;28;20041;-71
2022/10/15 07:22:14;;;;;;;8.20;7.80;;;;;;;;;;5019721;28;20034;-71
2022/10/15 07:24:40;;;;;;;8.20;7.80;;;;;;;;;;5016830;28;20044;-71
2022/10/15 07:27:06;;;;;;;8.55;8.15;;;;;;;;;;5017936;28;20405;-71
2022/10/15 07:29:31;;;;;;;8.20;7.80;;;;;;;;;;5014604;28;20033;-71
2022/10/15 07:31:57;;;;;;;8.05;7.65;;;;;;;;;;5018492;28;20045;-71
2022/10/15 07:34:22;;;;;;;8.20;7.80;;;;;;;;;;5017756;28;20512;-71
2022/10/15 07:36:48;;;;;;;8.57;8.18;;;;;;;;;;5013719;28;20312;-71
2022/10/15 07:39:16;;;;;;;8.40;8.00;;;;;;;;;;5018556;28;20041;-71
2022/10/15 07:41:42;;;;;;;8.63;8.23;;;;;;;;;;5018304;28;20036;-71
2022/10/15 07:44:07;;;;;;;8.52;8.13;;;;;;;;;;5018328;28;20030;-71
2022/10/15 07:46:33;;;;;;;8.50;8.10;;;;;;;;;;5013567;28;20041;-71
2022/10/15 07:48:58;;;;;;;8.50;8.10;;;;;;;;;;5017368;28;20030;-71
2022/10/15 07:51:24;;;;;;;8.65;8.25;;;;;;;;;;5019045;28;20136;-71
2022/10/15 07:53:50;;;;;;;8.50;8.10;;;;;;;;;;5017678;28;20393;-71
2022/10/15 07:56:16;;;;;;;8.50;8.10;;;;;;;;;;5021522;28;20119;-71
2022/10/15 07:58:50;;;;;;;8.60;8.20;;;;;;;;;;5012897;28;20038;-72
2022/10/15 08:01:16;;;;;;;8.10;7.70;;;;;;;;;;5021876;28;20030;-72
2022/10/15 08:03:41;;;;;;;8.15;7.75;;;;;;;;;;5017904;28;20034;-72
2022/10/15 08:06:07;;;;;;;8.40;8.00;;;;;;;;;;5017277;28;20042;-71
2022/10/15 08:08:34;;;;;;;8.40;8.00;;;;;;;;;;5020122;28;20037;-71
2022/10/15 08:11:07;;;;;;;8.40;8.00;;;;;;;;;;5015259;28;20396;-71
2022/10/15 08:13:33;;;;;;;8.23;7.82;;;;;;;;;;5012089;28;20086;-71
2022/10/15 08:15:59;;;;;;;8.60;8.20;;;;;;;;;;5016779;28;20505;-72
2022/10/15 08:18:25;;;;;;;8.05;7.65;;;;;;;;;;5010845;28;20045;-71
2022/10/15 08:20:51;;;;;;;8.40;8.00;;;;;;;;;;5017947;28;20033;-71
2022/10/15 08:23:16;;;;;;;8.30;7.90;;;;;;;;;;5016392;28;20037;-72
2022/10/15 08:25:43;;;;;;;8.23;7.82;;;;;;;;;;5013928;28;20051;-71
2022/10/15 08:28:11;;;;;;;8.18;7.78;;;;;;;;;;5017361;28;20101;-71
2022/10/15 08:30:37;;;;;;;8.50;8.10;;;;;;;;;;5000653;28;20141;-71
2022/10/15 08:33:09;;;;;;;8.40;8.00;;;;;;;;;;5038748;28;20037;-72
2022/10/15 08:35:37;;;;;;;8.32;7.93;;;;;;;;;;5013761;28;20375;-72
2022/10/15 08:38:04;;;;;;;8.75;8.35;;;;;;;;;;5021407;28;20120;-71
2022/10/15 08:40:31;;;;;;;8.32;7.93;;;;;;;;;;5014408;28;20036;-71
2022/10/15 08:42:57;;;;;;;8.50;8.10;;;;;;;;;;5020652;28;20560;-72
2022/10/15 08:45:28;;;;;;;8.23;7.82;;;;;;;;;;5018334;28;20037;-72
2022/10/15 08:48:04;;;;;;;8.77;8.38;;;;;;;;;;5023435;28;20152;-71
2022/10/15 08:50:51;;;;;;;8.50;8.10;;;;;;;;;;5019087;28;20032;-72
2022/10/15 08:53:21;;;;;;;8.30;7.90;;;;;;;;;;5021719;28;20527;-72
2022/10/15 08:55:52;;;;;;;8.18;7.78;;;;;;;;;;5012634;28;20049;-72
2022/10/15 08:58:25;;;;;;;8.13;7.72;;;;;;;;;;5017830;28;20037;-71
2022/10/15 09:00:56;;;;;;;8.35;7.95;;;;;;;;;;5019499;28;20033;-72
2022/10/15 09:03:44;;;;;;;8.20;7.80;;;;;;;;;;5023883;28;20124;-71
2022/10/15 09:06:22;;;;;;;7.82;7.43;;;;;;;;;;4995813;28;20329;-72
2022/10/15 09:09:11;;;;;;;8.07;7.68;;;;;;;;;;5021982;28;20108;-72
2022/10/15 09:12:00;;;;;;;8.13;7.72;;;;;;;;;;5013113;28;20048;-72
2022/10/15 09:14:32;;;;;;;8.27;7.88;;;;;;;;;;5018714;28;20056;-71
2022/10/15 09:17:02;;;;;;;7.90;7.50;;;;;;;;;;5016369;28;20412;-71
2022/10/15 09:19:30;;;;;;;8.20;7.80;;;;;;;;;;5018097;28;20671;-72
2022/10/15 09:21:56;;;;;;;8.02;7.63;;;;;;;;;;5022743;28;20029;-72
2022/10/15 09:24:26;;;;;;;7.68;7.28;;;;;;;;;;5022315;28;20034;-72
2022/10/15 09:27:08;;;;;;;7.65;7.25;;;;;;;;;;5018099;28;20033;-72
2022/10/15 09:29:54;;;;;;;7.90;7.50;;;;;;;;;;5019577;28;20037;-72
2022/10/15 09:32:30;;;;;;;7.43;7.03;;;;;;;;;;5018780;28;20041;-72
2022/10/15 09:35:17;;;;;;;7.68;7.28;;;;;;;;;;5021388;28;20026;-71
2022/10/15 09:37:59;;;;;;;7.43;7.03;;;;;;;;;;5023671;28;20045;-72
2022/10/15 09:40:38;;;;;;;7.82;7.43;;;;;;;;;;5020210;28;20038;-72
2022/10/15 09:43:05;;;;;;;7.90;7.50;;;;;;;;;;5020691;28;20442;-71
2022/10/15 09:45:31;;;;;;;7.82;7.43;;;;;;;;;;5023483;28;20128;-71
2022/10/15 09:47:59;;;;;;;7.60;7.20;;;;;;;;;;5020588;28;20045;-71
2022/10/15 09:50:43;;;;;;;7.82;7.43;;;;;;;;;;5016144;28;20109;-71
2022/10/15 09:53:50;;;;;;;7.80;7.40;;;;;;;;;;5020889;28;20448;-72
2022/10/15 09:56:18;;;;;;;8.30;7.90;;;;;;;;;;5016539;28;20042;-72
2022/10/15 09:58:55;;;;;;;7.90;7.50;;;;;;;;;;5020502;28;20124;-72
2022/10/15 10:01:26;;;;;;;8.30;7.90;;;;;;;;;;5017225;28;20029;-72
2022/10/15 10:04:07;;;;;;;7.97;7.57;;;;;;;;;;5018436;28;20036;-72
2022/10/15 10:06:43;;;;;;;7.80;7.40;;;;;;;;;;5022492;28;20477;-72
2022/10/15 10:09:16;;;;;;;7.80;7.40;;;;;;;;;;5019172;28;20524;-73
2022/10/15 10:11:49;;;;;;;8.05;7.65;;;;;;;;;;5021999;28;20108;-72
2022/10/15 10:14:42;;;;;;;7.65;7.25;;;;;;;;;;5019556;28;20444;-72
2022/10/15 10:17:18;;;;;;;7.95;7.55;;;;;;;;;;5010304;28;20210;-72
2022/10/15 10:20:00;;;;;;;8.10;7.70;;;;;;;;;;5011787;28;20038;-72
2022/10/15 10:22:26;;;;;;;8.10;7.70;;;;;;;;;;5014448;28;20595;-71
2022/10/15 10:24:51;;;;;;;7.70;7.30;;;;;;;;;;5018923;28;20049;-72
2022/10/15 10:27:28;;;;;;;8.00;7.60;;;;;;;;;;5020941;28;20061;-72
2022/10/15 10:29:56;;;;;;;7.15;6.80;;;;;;;;;;5021788;28;20041;-72
2022/10/15 10:32:31;;;;;;;6.90;6.60;;;;;;;;;;5011097;28;20052;-71
2022/10/15 10:34:59;;;;;;;7.85;7.45;;;;;;;;;;5013770;28;20033;-72
2022/10/15 10:37:26;;;;;;;8.02;7.63;;;;;;;;;;5021522;28;20037;-75
2022/10/15 10:39:57;;;;;;;7.22;6.82;;;;;;;;;;5014244;28;20473;-74
2022/10/15 10:42:33;;;;;;;7.20;6.90;;;;;;;;;;5018354;28;20037;-72
2022/10/15 10:45:17;;;;;;;6.53;6.22;;;;;;;;;;5015531;28;20040;-73
2022/10/15 10:47:42;;;;;;;6.22;5.93;;;;;;;;;;5016505;28;20041;-72
2022/10/15 10:50:27;;;;;;;8.00;7.60;;;;;;;;;;5017582;28;20034;-72
2022/10/15 10:52:53;;;;;;;7.57;7.18;;;;;;;;;;5021401;28;20037;-73
2022/10/15 10:55:23;;;;;;;6.70;6.40;;;;;;;;;;5016455;28;20036;-72
2022/10/15 10:57:58;;;;;;;6.55;6.25;;;;;;;;;;5022402;28;20039;-71
2022/10/15 11:00:33;;;;;;;7.10;6.80;;;;;;;;;;5017377;28;20504;-72
2022/10/15 11:02:59;;;;;;;7.30;6.90;;;;;;;;;;5021443;28;20121;-72
2022/10/15 11:05:27;;;;;;;7.32;6.93;;;;;;;;;;5017113;28;20595;-71
2022/10/15 11:08:25;;;;;;;7.30;6.90;;;;;;;;;;5022734;28;20033;-71
2022/10/15 11:11:11;;;;;;;7.53;7.13;;;;;;;;;;5019410;28;20473;-72
2022/10/15 11:13:57;;;;;;;7.80;7.40;;;;;;;;;;5022874;28;20037;-73
2022/10/15 11:16:37;;;;;;;8.00;7.60;;;;;;;;;;5019122;28;20072;-72
2022/10/15 11:19:15;;;;;;;7.70;7.30;;;;;;;;;;5016679;28;20403;-72
2022/10/15 11:21:47;;;;;;;8.20;7.80;;;;;;;;;;5015154;28;20517;-72
2022/10/15 11:24:29;;;;;;;7.90;7.50;;;;;;;;;;5017053;28;20272;-72
2022/10/15 11:27:00;;;;;;;7.50;7.10;;;;;;;;;;5021970;28;20033;-72
2022/10/15 11:29:57;;;;;;;7.43;7.03;;;;;;;;;;5017391;28;20040;-72
2022/10/15 11:32:50;;;;;;;7.40;7.00;;;;;;;;;;5013273;28;20348;-71
2022/10/15 11:35:37;;;;;;;7.43;7.03;;;;;;;;;;5020573;28;20293;-71
2022/10/15 11:38:15;;;;;;;7.70;7.30;;;;;;;;;;5020056;28;20452;-71
2022/10/15 11:40:49;;;;;;;7.10;6.80;;;;;;;;;;5015388;28;20041;-72
2022/10/15 11:43:47;;;;;;;7.00;6.70;;;;;;;;;;5021370;28;20486;-71
2022/10/15 11:46:26;;;;;;;7.00;6.70;;;;;;;;;;5023194;28;20030;-72
2022/10/15 11:49:21;;;;;;;6.80;6.50;;;;;;;;;;5018040;28;20040;-71
2022/10/15 11:52:05;;;;;;;7.30;6.90;;;;;;;;;;5023232;28;20037;-72
2022/10/15 11:54:56;;;;;;;7.70;7.30;;;;;;;;;;5019850;28;20117;-71
2022/10/15 11:57:24;;;;;;;7.00;6.70;;;;;;;;;;5020005;28;20025;-71
2022/10/15 11:59:59;;;;;;;7.00;6.70;;;;;;;;;;5021439;28;20034;-71
2022/10/15 12:02:33;;;;;;;6.90;6.60;;;;;;;;;;5020970;28;20034;-73
2022/10/15 12:05:16;;;;;;;6.80;6.50;;;;;;;;;;5022068;28;20141;-71
2022/10/15 12:07:42;;;;;;;7.00;6.70;;;;;;;;;;5022742;28;20065;-71
2022/10/15 12:10:19;;;;;;;6.95;6.65;;;;;;;;;;5022070;28;20041;-70
2022/10/15 12:13:17;;;;;;;7.10;6.80;;;;;;;;;;5017815;28;20544;-72
2022/10/15 12:16:07;;;;;;;6.63;6.32;;;;;;;;;;5016476;28;20425;-73
2022/10/15 12:18:40;;;;;;;6.60;6.30;;;;;;;;;;5021764;28;20481;-71
2022/10/15 12:21:58;;;;;;;7.10;6.80;;;;;;;;;;5023495;28;20120;-72
2022/10/15 12:24:46;;;;;;;6.85;6.55;;;;;;;;;;5024806;28;20394;-71
2022/10/15 12:27:17;;;;;;;6.80;6.50;;;;;;;;;;5025258;28;20405;-72
2022/10/15 12:30:06;;;;;;;7.00;6.70;;;;;;;;;;5021824;28;20037;-71
2022/10/15 12:32:41;;;;;;;7.10;6.80;;;;;;;;;;5011815;28;20412;-71
2022/10/15 12:35:19;;;;;;;7.55;7.15;;;;;;;;;;5022823;28;20041;-71
2022/10/15 12:37:47;;;;;;;7.30;6.90;;;;;;;;;;5027148;28;20594;-71
2022/10/15 12:40:24;;;;;;;7.40;7.00;;;;;;;;;;5016846;28;20037;-71
2022/10/15 12:42:53;;;;;;;7.50;7.10;;;;;;;;;;5022917;28;20048;-71
2022/10/15 12:45:22;;;;;;;7.68;7.28;;;;;;;;;;5019766;28;20316;-70
2022/10/15 12:48:12;;;;;;;7.30;6.90;;;;;;;;;;5020971;28;20042;-70
2022/10/15 12:50:39;;;;;;;6.70;6.40;;;;;;;;;;5017875;28;20889;-71
2022/10/15 12:53:24;;;;;;;7.30;6.90;;;;;;;;;;5024450;28;20124;-70
2022/10/15 12:56:33;;;;;;;7.10;6.80;;;;;;;;;;5019745;28;20044;-70
2022/10/15 12:58:59;;;;;;;7.45;7.05;;;;;;;;;;4945615;28;20047;-70
2022/10/15 13:01:29;;;;;;;7.40;7.00;;;;;;;;;;4948666;28;20047;-71
2022/10/15 13:03:59;;;;;;;7.70;7.30;;;;;;;;;;4947847;29;20047;-71
2022/10/15 13:06:30;;;;;;;7.45;7.05;;;;;;;;;;4946366;28;20047;-71
2022/10/15 13:09:08;;;;;;;7.20;6.80;;;;;;;;;;4948050;28;20051;-71
2022/10/15 13:11:45;;;;;;;7.43;7.03;;;;;;;;;;4945819;29;20067;-71
2022/10/15 13:14:32;;;;;;;7.50;7.10;;;;;;;;;;4946958;29;20058;-71
2022/10/15 13:17:01;;;;;;;7.25;6.85;;;;;;;;;;4950670;28;20074;-70
2022/10/15 13:19:31;;;;;;;7.30;6.90;;;;;;;;;;4947862;28;20122;-70
2022/10/15 13:22:01;;;;;;;7.40;7.00;;;;;;;;;;4946557;29;20043;-71
2022/10/15 13:24:30;;;;;;;8.07;7.68;;;;;;;;;;4945318;28;20372;-71
2022/10/15 13:26:59;;;;;;;7.70;7.30;;;;;;;;;;4945800;28;20069;-70
2022/10/15 13:29:26;;;;;;;7.60;7.20;;;;;;;;;;4945354;28;20039;-70
2022/10/15 13:31:54;;;;;;;7.40;7.00;;;;;;;;;;4945871;29;20364;-70
2022/10/15 13:34:31;;;;;;;7.30;6.90;;;;;;;;;;4978834;28;20496;-70
2022/10/15 13:36:59;;;;;;;7.50;7.10;;;;;;;;;;5019499;28;20120;-70
2022/10/15 13:39:31;;;;;;;7.55;7.15;;;;;;;;;;5019850;28;20505;-70
2022/10/15 13:42:12;;;;;;;7.65;7.25;;;;;;;;;;5017936;28;20041;-70
2022/10/15 13:44:38;;;;;;;7.70;7.30;;;;;;;;;;5019988;28;20049;-70
2022/10/15 13:47:31;;;;;;;7.50;7.10;;;;;;;;;;5015423;28;20112;-70
2022/10/15 13:50:17;;;;;;;7.43;7.03;;;;;;;;;;5014326;28;20072;-70
2022/10/15 13:52:47;;;;;;;7.32;6.93;;;;;;;;;;5020158;28;20102;-70
2022/10/15 13:55:19;;;;;;;7.30;6.90;;;;;;;;;;5012804;28;20410;-70
2022/10/15 13:57:47;;;;;;;7.10;6.80;;;;;;;;;;5019426;28;20046;-70
2022/10/15 14:00:21;;;;;;;7.63;7.22;;;;;;;;;;5022099;28;20113;-71
2022/10/15 14:03:06;;;;;;;7.50;7.10;;;;;;;;;;5026429;28;20033;-71
2022/10/15 14:05:31;;;;;;;7.38;6.97;;;;;;;;;;5021884;28;20045;-71
2022/10/15 14:07:57;;;;;;;7.65;7.25;;;;;;;;;;5021432;28;20041;-70
2022/10/15 14:10:22;;;;;;;7.57;7.18;;;;;;;;;;5018680;28;20033;-71
2022/10/15 14:12:51;;;;;;;7.70;7.30;;;;;;;;;;5019282;28;20335;-71
2022/10/15 14:15:46;;;;;;;7.57;7.18;;;;;;;;;;5020846;28;20037;-71
2022/10/15 14:18:16;;;;;;;7.50;7.10;;;;;;;;;;5027809;28;20148;-71
2022/10/15 14:20:46;;;;;;;7.60;7.20;;;;;;;;;;5025219;28;20044;-71
2022/10/15 14:23:30;;;;;;;7.10;6.80;;;;;;;;;;5024647;28;20037;-71
2022/10/15 14:25:59;;;;;;;7.50;7.10;;;;;;;;;;5018308;28;20045;-71
2022/10/15 14:28:27;;;;;;;7.45;7.05;;;;;;;;;;5019379;28;20029;-71
2022/10/15 14:30:53;;;;;;;7.40;7.00;;;;;;;;;;5018122;28;20049;-72
2022/10/15 14:33:36;;;;;;;7.40;7.00;;;;;;;;;;5020411;28;20449;-71
2022/10/15 14:36:18;;;;;;;7.40;7.00;;;;;;;;;;5018674;28;20432;-71
2022/10/15 14:38:44;;;;;;;7.57;7.18;;;;;;;;;;5018646;28;20053;-72
2022/10/15 14:41:30;;;;;;;7.15;6.80;;;;;;;;;;5015637;28;20037;-70
2022/10/15 14:44:25;;;;;;;7.50;7.10;;;;;;;;;;5021441;28;20037;-71
2022/10/15 14:47:00;;;;;;;7.50;7.10;;;;;;;;;;4967806;28;20046;-71
2022/10/15 14:49:29;;;;;;;7.40;7.00;;;;;;;;;;4974639;28;20050;-71
2022/10/15 14:52:01;;;;;;;;;;;;;;;;;;4969760;28;20054;-71
2022/10/15 14:54:33;;;;;;;7.80;7.40;;;;;;;;;;4961883;28;20374;-71
2022/10/15 14:57:01;;;;;;;7.78;7.38;;;;;;;;;;4966767;28;20060;-71
2022/10/15 14:59:34;;;;;;;7.40;7.00;;;;;;;;;;4973243;28;20042;-71
2022/10/15 15:02:02;;;;;;;7.30;6.90;;;;;;;;;;4970289;28;20409;-71
2022/10/15 15:04:32;;;;;;;7.60;7.20;;;;;;;;;;4965451;28;20058;-71
2022/10/15 15:06:58;;;;;;;7.30;6.90;;;;;;;;;;4966332;28;20510;-71
2022/10/15 15:09:24;;;;;;;7.50;7.10;;;;;;;;;;4967441;28;20038;-71
2022/10/15 15:11:49;;;;;;;7.55;7.15;;;;;;;;;;4962008;28;20502;-71
2022/10/15 15:14:26;;;;;;;7.43;7.03;;;;;;;;;;4965709;28;20089;-72